Time;durP1;ratioP1;P1;durP2;ratioP2;P2;SDS_P1;SDS_P2;PMS_P1;PMS_P2;Temp;Humidity;BMP_temperature;BMP_pressure;BME280_temperature;BME280_humidity;BME280_pressure;Samples;Min_cycle;Max_cycle;Signal;HPM_P1;HPM_P2
2024/01/20 00:01:46;;;;;;;;;33.67;31.33;;;;;0.80;67.64;102460.81;5071417;27;45498;-68
2024/01/20 00:04:12;;;;;;;;;48.25;33.25;;;;;0.88;67.54;102471.63;5063128;27;45409;-67
2024/01/20 00:06:37;;;;;;;;;51.00;36.33;;;;;0.95;66.53;102481.59;5067999;27;45670;-67
2024/01/20 00:09:03;;;;;;;;;42.33;34.67;;;;;0.92;67.20;102469.38;5072424;27;45491;-66
2024/01/20 00:11:29;;;;;;;;;40.67;35.33;;;;;0.94;66.97;102474.66;5061756;27;45325;-67
2024/01/20 00:13:54;;;;;;;;;51.00;34.33;;;;;0.61;66.67;102444.03;5060388;27;46529;-67
2024/01/20 00:16:20;;;;;;;;;41.00;35.33;;;;;0.73;67.88;102480.09;5063816;27;45454;-66
2024/01/20 00:18:47;;;;;;;;;43.67;36.33;;;;;0.52;68.50;102458.91;5082444;27;45419;-69
2024/01/20 00:21:14;;;;;;;;;38.67;33.67;;;;;0.51;67.50;102459.66;5062842;27;45503;-69
2024/01/20 00:23:39;;;;;;;;;40.33;33.33;;;;;0.42;67.27;102443.53;5067452;27;45560;-67
2024/01/20 00:26:05;;;;;;;;;46.00;35.67;;;;;0.68;67.27;102491.78;5064471;27;45484;-68
2024/01/20 00:28:30;;;;;;;;;44.00;37.00;;;;;0.73;67.62;102495.59;5061758;27;45598;-66
2024/01/20 00:30:56;;;;;;;;;41.33;34.00;;;;;0.75;66.91;102493.13;5070910;27;45438;-67
2024/01/20 00:33:22;;;;;;;;;47.00;36.33;;;;;0.68;67.09;102478.00;5062153;27;47254;-66
2024/01/20 00:35:55;;;;;;;;;48.67;34.67;;;;;0.55;67.43;102459.09;5063336;27;45601;-67
2024/01/20 00:38:21;;;;;;;;;41.67;35.00;;;;;0.41;67.87;102472.72;5058469;27;45318;-68
2024/01/20 00:40:47;;;;;;;;;44.00;34.00;;;;;0.41;69.21;102501.94;5057691;27;45468;-66
2024/01/20 00:43:13;;;;;;;;;40.25;33.75;;;;;0.37;68.45;102499.94;5065412;27;46055;-67
2024/01/20 00:45:39;;;;;;;;;43.00;35.67;;;;;0.33;69.34;102502.19;5062300;27;45503;-67
2024/01/20 00:48:05;;;;;;;;;41.33;35.33;;;;;0.35;69.63;102516.97;5085672;27;45556;-67
2024/01/20 00:50:31;;;;;;;;;43.00;35.00;;;;;0.20;69.46;102484.94;5087421;27;45451;-68
2024/01/20 00:53:18;;;;;;;;;39.33;34.33;;;;;0.19;68.67;102499.53;5065361;27;46084;-68
2024/01/20 00:55:45;;;;;;;;;51.75;34.25;;;;;0.33;69.41;102517.66;5059097;28;45370;-70
2024/01/20 00:58:10;;;;;;;;;41.67;34.33;;;;;0.32;68.60;102515.88;5069680;27;45392;-67
2024/01/20 01:00:37;;;;;;;;;46.00;36.00;;;;;0.06;68.81;102489.09;5067122;28;45547;-67
2024/01/20 01:03:03;;;;;;;;;36.67;33.00;;;;;0.17;69.04;102493.34;5065003;27;45828;-66
2024/01/20 01:05:29;;;;;;;;;45.33;33.00;;;;;0.35;68.73;102527.28;5054734;28;45580;-66
2024/01/20 01:07:57;;;;;;;;;42.33;33.00;;;;;0.25;68.83;102523.94;5065716;27;45376;-69
2024/01/20 01:10:22;;;;;;;;;40.67;29.00;;;;;0.19;68.91;102514.06;5090538;27;45470;-67
2024/01/20 01:12:49;;;;;;;;;36.67;31.33;;;;;0.11;68.61;102498.06;5094226;27;46648;-68
2024/01/20 01:15:15;;;;;;;;;45.00;33.00;;;;;0.09;68.53;102502.19;5077308;28;45560;-66
2024/01/20 01:17:40;;;;;;;;;45.67;34.00;;;;;0.18;68.30;102515.75;5060670;28;45338;-67
2024/01/20 01:20:07;;;;;;;;;31.67;25.67;;;;;0.19;68.22;102511.50;5081150;27;45341;-67
2024/01/20 01:22:35;;;;;;;;;38.67;32.00;;;;;0.24;68.29;102515.31;5081705;27;47502;-67
2024/01/20 01:25:01;;;;;;;;;40.33;30.33;;;;;0.11;68.43;102504.91;5079727;27;45460;-68
2024/01/20 01:27:27;;;;;;;;;39.67;33.67;;;;;0.07;68.77;102520.91;5065642;27;45578;-66
2024/01/20 01:29:52;;;;;;;;;49.67;36.33;;;;;0.16;68.72;102522.47;5079833;27;45375;-66
2024/01/20 01:32:19;;;;;;;;;43.33;33.00;;;;;-0.04;69.28;102500.41;5079677;27;45496;-66
2024/01/20 01:34:44;;;;;;;;;46.00;34.33;;;;;0.04;69.49;102520.69;5079827;27;45454;-67
2024/01/20 01:37:10;;;;;;;;;47.67;37.67;;;;;0.02;68.74;102504.22;5078007;27;45436;-67
2024/01/20 01:39:35;;;;;;;;;47.67;36.00;;;;;0.11;68.68;102515.19;5079666;28;45551;-68
2024/01/20 01:42:01;;;;;;;;;42.67;31.33;;;;;0.22;68.79;102522.03;5080562;28;45715;-67
2024/01/20 01:44:27;;;;;;;;;48.67;39.33;;;;;0.16;68.54;102526.72;5080821;27;45402;-67
2024/01/20 01:46:52;;;;;;;;;45.33;34.00;;;;;0.07;69.67;102521.81;5066505;27;45487;-67
2024/01/20 01:49:19;;;;;;;;;43.67;34.67;;;;;0.14;69.17;102538.59;5079609;27;45519;-66
2024/01/20 01:51:45;;;;;;;;;44.00;35.33;;;;;0.06;69.50;102526.84;5064413;28;45436;-67
2024/01/20 01:54:11;;;;;;;;;30.67;28.67;;;;;0.21;69.51;102538.28;5096498;27;45479;-68
2024/01/20 01:56:41;;;;;;;;;41.00;30.00;;;;;0.28;69.07;102534.47;5080978;27;45427;-68
2024/01/20 01:59:07;;;;;;;;;52.33;38.67;;;;;0.35;69.06;102545.31;5096564;27;45530;-67
2024/01/20 02:01:33;;;;;;;;;45.33;35.00;;;;;0.25;68.60;102541.97;5066862;27;46325;-68
2024/01/20 02:03:59;;;;;;;;;44.67;30.00;;;;;0.22;68.94;102534.03;5078414;28;45338;-67
2024/01/20 02:06:25;;;;;;;;;42.67;33.00;;;;;0.30;68.66;102544.09;5079543;27;45403;-66
2024/01/20 02:08:51;;;;;;;;;45.67;33.67;;;;;0.30;68.55;102556.97;5079462;28;45355;-68
2024/01/20 02:11:18;;;;;;;;;38.33;33.00;;;;;0.34;69.00;102546.13;5078870;27;45467;-67
2024/01/20 02:13:44;;;;;;;;;51.00;37.33;;;;;0.37;68.05;102546.34;5094637;27;45457;-67
2024/01/20 02:16:09;;;;;;;;;42.67;33.33;;;;;0.35;68.01;102531.53;5077029;27;45523;-67
2024/01/20 02:18:35;;;;;;;;;40.00;30.67;;;;;0.43;67.76;102535.59;5067259;28;45456;-68
2024/01/20 02:21:00;;;;;;;;;44.33;34.33;;;;;0.42;68.70;102528.63;5078563;28;45427;-67
2024/01/20 02:23:26;;;;;;;;;42.00;34.33;;;;;0.38;68.43;102527.53;5093868;27;45386;-68
2024/01/20 02:25:51;;;;;;;;;35.67;34.00;;;;;0.46;68.72;102540.94;5072817;27;45378;-66
2024/01/20 02:28:17;;;;;;;;;46.67;36.33;;;;;0.44;67.59;102537.38;5069781;28;45418;-67
2024/01/20 02:30:44;;;;;;;;;44.33;35.00;;;;;0.41;67.67;102542.31;5092304;27;47002;-67
2024/01/20 02:33:10;;;;;;;;;48.33;34.67;;;;;0.31;68.08;102551.06;5078023;28;45445;-67
2024/01/20 02:35:35;;;;;;;;;39.67;33.33;;;;;0.35;68.50;102549.59;5078842;28;45482;-67
2024/01/20 02:38:01;;;;;;;;;43.67;34.67;;;;;0.45;68.22;102551.13;5103551;27;45580;-66
2024/01/20 02:40:27;;;;;;;;;39.00;27.00;;;;;0.40;67.97;102544.00;5077299;28;47009;-67
2024/01/20 02:42:53;;;;;;;;;43.00;32.75;;;;;0.48;68.47;102557.44;5077836;28;45435;-67
2024/01/20 02:45:19;;;;;;;;;40.33;33.33;;;;;0.44;68.03;102549.38;5079622;28;45452;-68
2024/01/20 02:47:44;;;;;;;;;37.00;29.67;;;;;0.39;67.76;102537.03;5077450;27;45513;-66
2024/01/20 02:50:10;;;;;;;;;44.33;30.00;;;;;0.46;67.45;102559.00;5077968;28;45433;-68
2024/01/20 02:52:36;;;;;;;;;45.67;35.00;;;;;0.34;67.47;102558.13;5078020;27;45658;-67
2024/01/20 02:55:02;;;;;;;;;54.00;39.33;;;;;0.21;67.44;102551.16;5093873;27;45544;-68
2024/01/20 02:57:27;;;;;;;;;46.67;34.00;;;;;0.24;67.07;102553.97;5078566;28;45632;-67
2024/01/20 02:59:53;;;;;;;;;43.67;30.33;;;;;0.27;67.36;102548.16;5078223;28;45426;-68
2024/01/20 03:02:19;;;;;;;;;43.67;34.67;;;;;0.29;66.65;102549.16;5072433;27;46055;-67
2024/01/20 03:04:44;;;;;;;;;36.67;31.33;;;;;0.34;67.02;102553.84;5078246;27;45899;-67
2024/01/20 03:07:10;;;;;;;;;41.67;32.67;;;;;0.32;66.94;102551.94;5069118;28;46172;-67
2024/01/20 03:09:35;;;;;;;;;46.00;32.00;;;;;0.34;67.04;102553.84;5093529;27;46591;-67
2024/01/20 03:12:01;;;;;;;;;39.33;34.67;;;;;0.34;66.37;102540.97;5064868;27;45363;-67
2024/01/20 03:14:27;;;;;;;;;46.33;37.67;;;;;0.41;67.41;102542.31;5065335;27;45566;-67
2024/01/20 03:16:52;;;;;;;;;47.25;34.50;;;;;0.29;67.00;102532.00;5072615;28;45537;-67
2024/01/20 03:19:19;;;;;;;;;38.00;34.00;;;;;0.34;66.65;102533.22;5069857;28;45559;-67
2024/01/20 03:21:44;;;;;;;;;50.67;34.33;;;;;0.33;67.11;102546.00;5063787;27;45505;-66
2024/01/20 03:24:10;;;;;;;;;51.33;37.67;;;;;-0.08;66.59;102493.25;5077421;27;45538;-67
2024/01/20 03:26:36;;;;;;;;;50.00;35.00;;;;;0.23;67.16;102548.69;5110832;27;45449;-67
2024/01/20 03:29:02;;;;;;;;;38.50;32.50;;;;;0.07;67.35;102528.63;5097508;27;45481;-68
2024/01/20 03:31:28;;;;;;;;;46.67;34.33;;;;;0.07;67.26;102542.44;5090776;27;45362;-68
2024/01/20 03:33:53;;;;;;;;;42.00;33.67;;;;;0.15;67.38;102563.59;5063659;28;45377;-67
2024/01/20 03:36:19;;;;;;;;;39.33;33.33;;;;;0.11;67.19;102553.84;5077757;27;45407;-67
2024/01/20 03:38:44;;;;;;;;;51.33;35.00;;;;;0.05;66.73;102545.66;5077387;28;46045;-67
2024/01/20 03:41:10;;;;;;;;;44.33;37.33;;;;;-0.05;66.97;102552.75;5072543;27;45595;-67
2024/01/20 03:43:35;;;;;;;;;40.50;30.00;;;;;-0.16;67.60;102552.72;5068804;28;45440;-67
2024/01/20 03:46:01;;;;;;;;;45.67;34.33;;;;;-0.13;67.69;102558.97;5078089;28;45547;-66
2024/01/20 03:48:26;;;;;;;;;37.25;31.00;;;;;-0.17;66.62;102553.50;5077601;27;45673;-66
2024/01/20 03:50:52;;;;;;;;;39.00;31.33;;;;;-0.37;66.76;102509.13;5096141;27;46023;-67
2024/01/20 03:53:18;;;;;;;;;39.33;28.67;;;;;-0.38;67.71;102521.88;5103548;27;45387;-71
2024/01/20 03:55:43;;;;;;;;;42.00;32.00;;;;;-0.37;68.24;102515.97;5071870;28;45414;-66
2024/01/20 03:58:09;;;;;;;;;43.00;35.00;;;;;-0.20;67.81;102546.44;5073051;27;45972;-67
2024/01/20 04:00:34;;;;;;;;;38.67;30.67;;;;;-0.09;67.81;102557.53;5067557;28;45405;-68
2024/01/20 04:03:02;;;;;;;;;39.33;30.00;;;;;-0.05;67.23;102559.53;5093484;27;45521;-68
2024/01/20 04:05:28;;;;;;;;;35.00;28.50;;;;;-0.11;68.03;102553.94;5077862;27;45499;-68
2024/01/20 04:07:53;;;;;;;;;45.33;31.67;;;;;-0.20;67.50;102551.56;5093015;27;47497;-67
2024/01/20 04:10:19;;;;;;;;;51.00;34.67;;;;;-0.24;67.65;102560.78;5092978;27;45357;-67
2024/01/20 04:12:45;;;;;;;;;44.33;33.33;;;;;-0.23;67.99;102569.38;5097557;27;45364;-68
2024/01/20 04:15:10;;;;;;;;;36.33;26.67;;;;;-0.25;68.05;102565.78;5076415;28;45424;-67
2024/01/20 04:17:36;;;;;;;;;32.67;28.33;;;;;-0.23;68.30;102548.78;5077499;27;45499;-67
2024/01/20 04:20:04;;;;;;;;;46.00;34.00;;;;;-0.07;67.63;102561.09;5076226;28;45619;-67
2024/01/20 04:22:30;;;;;;;;;37.00;29.00;;;;;-0.04;67.15;102558.78;5077462;28;45369;-68
2024/01/20 04:24:55;;;;;;;;;38.33;33.00;;;;;-0.06;68.11;102548.34;5077224;27;45389;-66
2024/01/20 04:27:21;;;;;;;;;32.00;28.67;;;;;-0.02;67.56;102563.25;5077165;27;45436;-67
2024/01/20 04:29:47;;;;;;;;;38.00;24.33;;;;;-0.04;67.73;102549.38;5077791;28;45484;-67
2024/01/20 04:32:13;;;;;;;;;46.33;35.67;;;;;0.04;66.74;102565.38;5092620;27;45441;-67
2024/01/20 04:34:39;;;;;;;;;38.33;30.00;;;;;0.02;67.03;102571.22;5077233;28;45437;-67
2024/01/20 04:37:06;;;;;;;;;42.33;31.67;;;;;-0.02;66.74;102560.69;5076713;27;46533;-67
2024/01/20 04:39:31;;;;;;;;;40.25;34.00;;;;;-0.05;67.46;102554.38;5076952;28;45522;-67
2024/01/20 04:41:57;;;;;;;;;49.67;33.33;;;;;-0.04;67.39;102546.78;5076772;28;45500;-67
2024/01/20 04:44:22;;;;;;;;;39.50;30.25;;;;;0.17;67.57;102562.03;5076969;27;45443;-68
2024/01/20 04:46:48;;;;;;;;;40.33;33.33;;;;;0.11;66.93;102549.59;5076122;27;46165;-67
2024/01/20 04:49:13;;;;;;;;;35.25;23.25;;;;;0.27;67.06;102569.66;5075307;28;45488;-67
2024/01/20 04:51:39;;;;;;;;;37.00;29.33;;;;;0.19;66.61;102548.50;5077615;27;45342;-68
2024/01/20 04:54:05;;;;;;;;;38.33;34.00;;;;;0.19;66.56;102555.28;5077289;28;45304;-67
2024/01/20 04:56:30;;;;;;;;;42.33;33.00;;;;;0.12;66.74;102572.00;5091987;27;47933;-67
2024/01/20 04:58:56;;;;;;;;;40.67;33.67;;;;;0.01;66.87;102569.44;5076910;27;45547;-67
2024/01/20 05:01:22;;;;;;;;;41.33;34.00;;;;;-0.06;67.70;102576.69;5076737;27;45212;-67
2024/01/20 05:03:47;;;;;;;;;45.67;29.33;;;;;-0.09;67.32;102567.84;5078280;27;45558;-66
2024/01/20 05:06:14;;;;;;;;;38.33;30.33;;;;;-0.03;67.50;102574.31;5071634;27;45516;-68
2024/01/20 05:08:39;;;;;;;;;34.33;23.00;;;;;-0.08;66.98;102562.78;5068366;28;45283;-68
2024/01/20 05:11:05;;;;;;;;;35.50;29.50;;;;;-0.12;66.64;102568.53;5069219;27;45443;-67
2024/01/20 05:13:31;;;;;;;;;47.67;32.33;;;;;-0.16;67.01;102571.63;5075539;28;45517;-66
2024/01/20 05:15:56;;;;;;;;;44.33;34.00;;;;;-0.47;67.30;102533.28;5076269;28;45373;-66
2024/01/20 05:18:22;;;;;;;;;43.00;30.00;;;;;-0.36;67.67;102579.53;5061732;27;45501;-67
2024/01/20 05:20:47;;;;;;;;;31.00;25.33;;;;;-0.35;67.61;102577.09;5076275;28;45447;-67
2024/01/20 05:23:13;;;;;;;;;35.00;26.00;;;;;-0.39;67.43;102581.88;5077960;27;45321;-67
2024/01/20 05:25:38;;;;;;;;;37.33;28.00;;;;;-0.50;67.96;102573.31;5076031;27;45345;-67
2024/01/20 05:28:04;;;;;;;;;42.33;34.00;;;;;-0.47;67.50;102581.31;5076496;28;45474;-68
2024/01/20 05:30:30;;;;;;;;;36.00;27.67;;;;;-0.55;67.79;102574.66;5076305;27;45402;-67
2024/01/20 05:32:56;;;;;;;;;38.67;28.00;;;;;-0.61;68.75;102576.78;5065373;28;45424;-66
2024/01/20 05:35:21;;;;;;;;;41.33;32.00;;;;;-0.53;68.84;102593.69;5065165;28;46038;-67
2024/01/20 05:37:47;;;;;;;;;39.33;28.00;;;;;-0.62;68.08;102582.69;5075748;27;45612;-67
2024/01/20 05:40:13;;;;;;;;;32.33;24.67;;;;;-0.60;68.61;102586.28;5091913;27;45438;-67
2024/01/20 05:42:39;;;;;;;;;33.00;26.67;;;;;-0.56;68.93;102594.38;5076590;27;45394;-68
2024/01/20 05:45:08;;;;;;;;;29.67;24.67;;;;;-0.54;68.76;102586.78;5074795;28;47708;-67
2024/01/20 05:47:37;;;;;;;;;34.67;32.33;;;;;-0.51;68.64;102581.84;5075911;27;45398;-68
2024/01/20 05:50:04;;;;;;;;;36.33;26.00;;;;;-0.60;68.04;102563.13;5091377;27;45487;-68
2024/01/20 05:52:29;;;;;;;;;43.75;30.75;;;;;-0.51;67.72;102557.00;5091978;27;46090;-66
2024/01/20 05:54:55;;;;;;;;;42.67;32.33;;;;;-0.39;68.06;102571.59;5076373;28;45560;-66
2024/01/20 05:57:20;;;;;;;;;32.67;26.00;;;;;-0.48;68.98;102577.81;5061968;28;45536;-67
2024/01/20 05:59:46;;;;;;;;;40.67;27.33;;;;;-0.40;68.50;102591.28;5077082;27;45404;-67
2024/01/20 06:02:11;;;;;;;;;34.67;26.33;;;;;-0.46;68.30;102580.50;5079498;27;45445;-67
2024/01/20 06:04:37;;;;;;;;;42.67;28.33;;;;;-0.43;68.51;102589.38;5079451;28;46057;-67
2024/01/20 06:07:03;;;;;;;;;35.25;28.75;;;;;-0.44;68.68;102590.16;5077817;28;45441;-67
2024/01/20 06:09:28;;;;;;;;;35.67;32.67;;;;;-0.37;68.52;102601.81;5079242;27;45523;-67
2024/01/20 06:11:53;;;;;;;;;33.75;28.00;;;;;-0.36;68.43;102605.28;5079099;27;45464;-67
2024/01/20 06:14:19;;;;;;;;;41.00;29.00;;;;;-0.43;68.34;102591.97;5078646;27;46241;-67
2024/01/20 06:16:45;;;;;;;;;35.33;31.67;;;;;-0.39;68.38;102590.50;5077564;28;45499;-68
2024/01/20 06:19:10;;;;;;;;;36.67;30.33;;;;;-0.46;68.03;102571.09;5078106;28;45373;-68
2024/01/20 06:21:36;;;;;;;;;39.00;34.00;;;;;-0.46;67.94;102565.06;5079136;27;45488;-67
2024/01/20 06:24:01;;;;;;;;;30.00;24.33;;;;;-0.47;67.99;102565.88;5079196;28;45512;-68
2024/01/20 06:26:27;;;;;;;;;42.67;29.00;;;;;-0.53;68.82;102585.97;5079171;27;45431;-67
2024/01/20 06:28:52;;;;;;;;;45.00;33.33;;;;;-0.49;68.34;102593.16;5080644;28;45377;-67
2024/01/20 06:31:25;;;;;;;;;43.33;35.67;;;;;-0.49;69.65;102594.06;5063104;28;45535;-68
2024/01/20 06:33:52;;;;;;;;;44.67;31.67;;;;;-0.61;69.59;102598.25;5077024;27;46527;-68
2024/01/20 06:36:17;;;;;;;;;42.67;32.67;;;;;-0.60;69.60;102588.84;5062353;28;45419;-64
2024/01/20 06:38:43;;;;;;;;;39.33;27.33;;;;;-0.55;69.44;102598.72;5070507;28;45500;-68
2024/01/20 06:41:08;;;;;;;;;44.00;33.33;;;;;-0.56;69.62;102602.09;5061814;28;45338;-68
2024/01/20 06:43:34;;;;;;;;;41.33;30.00;;;;;-0.62;69.43;102599.03;5069301;28;45680;-67
2024/01/20 06:46:00;;;;;;;;;41.00;32.33;;;;;-0.63;69.10;102601.50;5074404;27;45626;-67
2024/01/20 06:48:26;;;;;;;;;45.00;32.33;;;;;-0.68;69.24;102593.41;5101970;27;45390;-67
2024/01/20 06:50:52;;;;;;;;;43.33;35.00;;;;;-0.60;70.29;102612.91;5073772;28;45252;-67
2024/01/20 06:53:18;;;;;;;;;43.00;34.67;;;;;-0.72;69.53;102597.41;5078632;27;45364;-66
2024/01/20 06:55:43;;;;;;;;;39.33;29.00;;;;;-0.71;69.84;102606.06;5078453;27;45497;-67
2024/01/20 06:58:09;;;;;;;;;45.67;35.33;;;;;-0.70;69.37;102610.41;5094320;27;45413;-67
2024/01/20 07:00:34;;;;;;;;;45.33;32.00;;;;;-0.76;69.31;102597.97;5078678;27;45363;-67
2024/01/20 07:03:00;;;;;;;;;47.00;34.00;;;;;-0.55;69.56;102628.72;5077543;28;45813;-66
2024/01/20 07:05:25;;;;;;;;;43.33;32.33;;;;;-0.56;69.66;102637.22;5093602;27;45620;-67
2024/01/20 07:07:51;;;;;;;;;45.00;35.33;;;;;-0.60;69.71;102643.78;5063850;28;45472;-67
2024/01/20 07:10:16;;;;;;;;;38.00;28.33;;;;;-0.53;69.85;102640.03;5062333;28;45499;-67
2024/01/20 07:12:42;;;;;;;;;44.33;31.67;;;;;-0.55;69.46;102631.28;5078415;27;45529;-67
2024/01/20 07:15:08;;;;;;;;;37.67;29.33;;;;;-0.54;69.08;102644.28;5076961;28;45709;-67
2024/01/20 07:17:34;;;;;;;;;44.33;33.33;;;;;-0.60;69.46;102646.38;5077964;27;45402;-66
2024/01/20 07:19:59;;;;;;;;;47.00;34.33;;;;;-0.66;69.58;102638.19;5078644;27;45424;-66
2024/01/20 07:22:25;;;;;;;;;38.33;32.67;;;;;-0.61;69.53;102639.44;5063821;28;46100;-66
2024/01/20 07:24:51;;;;;;;;;49.00;34.67;;;;;-0.66;69.99;102638.19;5078693;27;45452;-67
2024/01/20 07:27:16;;;;;;;;;50.00;36.00;;;;;-0.69;70.23;102632.78;5077952;28;45397;-67
2024/01/20 07:29:42;;;;;;;;;39.00;30.67;;;;;-0.56;69.91;102653.56;5078315;27;45554;-67
2024/01/20 07:32:07;;;;;;;;;44.00;33.33;;;;;-0.56;69.40;102648.41;5074611;27;45721;-66
2024/01/20 07:34:33;;;;;;;;;44.33;34.67;;;;;-0.65;69.49;102639.97;5066591;28;45433;-68
2024/01/20 07:36:59;;;;;;;;;42.33;33.00;;;;;-0.60;69.48;102653.19;5096237;27;45521;-66
2024/01/20 07:39:24;;;;;;;;;41.00;35.00;;;;;-0.54;69.21;102657.16;5077950;27;45489;-67
2024/01/20 07:41:50;;;;;;;;;27.67;26.00;;;;;-0.51;69.60;102643.63;5077810;27;45461;-67
2024/01/20 07:44:15;;;;;;;;;40.00;29.67;;;;;-0.57;69.65;102633.75;5077978;28;45542;-69
2024/01/20 07:46:41;;;;;;;;;45.33;37.33;;;;;-0.47;69.04;102651.72;5076819;27;45357;-67
2024/01/20 07:49:07;;;;;;;;;48.33;36.67;;;;;-0.47;69.32;102645.66;5077846;27;45449;-66
2024/01/20 07:51:33;;;;;;;;;40.00;33.00;;;;;-0.49;68.72;102634.34;5076018;27;46908;-69
2024/01/20 07:53:58;;;;;;;;;34.33;31.67;;;;;-0.51;68.95;102636.78;5077501;28;45448;-67
2024/01/20 07:56:24;;;;;;;;;50.00;34.00;;;;;-0.48;69.20;102659.28;5077773;27;45435;-68
2024/01/20 07:58:50;;;;;;;;;41.33;31.67;;;;;-0.59;69.91;102647.25;5076172;27;45511;-67
2024/01/20 08:01:17;;;;;;;;;43.33;32.67;;;;;-0.54;69.13;102659.72;5091266;27;48037;-66
2024/01/20 08:03:43;;;;;;;;;39.67;33.67;;;;;-0.49;68.91;102658.41;5063860;28;45456;-66
2024/01/20 08:06:09;;;;;;;;;51.67;37.33;;;;;-0.53;69.35;102652.91;5075884;28;45382;-67
2024/01/20 08:08:35;;;;;;;;;47.67;34.00;;;;;-0.51;69.46;102670.25;5076905;28;45634;-67
2024/01/20 08:11:00;;;;;;;;;45.67;38.00;;;;;-0.49;69.78;102671.28;5077411;27;46032;-66
2024/01/20 08:13:26;;;;;;;;;52.00;35.33;;;;;-0.51;69.35;102669.38;5078530;27;45389;-67
2024/01/20 08:15:51;;;;;;;;;49.00;32.00;;;;;-0.42;69.00;102670.09;5067276;27;45476;-67
2024/01/20 08:18:17;;;;;;;;;52.67;35.00;;;;;-0.49;69.57;102663.56;5060763;28;45440;-66
2024/01/20 08:20:43;;;;;;;;;43.67;32.33;;;;;-0.35;69.74;102656.91;5075579;28;47827;-67
2024/01/20 08:23:08;;;;;;;;;44.67;33.67;;;;;-0.16;68.64;102661.78;5076572;28;45913;-69
2024/01/20 08:25:34;;;;;;;;;37.33;31.67;;;;;0.63;67.30;102664.25;5092874;27;45476;-67
2024/01/20 08:27:59;;;;;;;;;42.33;35.67;;;;;1.50;64.31;102653.22;5077149;27;45436;-68
2024/01/20 08:30:25;;;;;;;;;42.33;31.67;;;;;2.45;62.21;102663.91;5076832;27;46104;-67
2024/01/20 08:32:51;;;;;;;;;47.50;34.25;;;;;3.22;60.42;102661.97;5085185;27;45476;-67
2024/01/20 08:35:16;;;;;;;;;40.25;34.50;;;;;4.22;57.77;102655.97;5073346;28;45420;-67
2024/01/20 08:37:42;;;;;;;;;48.00;35.50;;;;;5.09;54.77;102656.53;5078072;28;45516;-67
2024/01/20 08:40:09;;;;;;;;;45.50;29.50;;;;;5.86;54.40;102651.13;5075371;28;45444;-67
2024/01/20 08:42:34;;;;;;;;;41.25;34.00;;;;;6.84;51.81;102647.34;5076565;27;45459;-67
2024/01/20 08:45:00;;;;;;;;;41.00;33.75;;;;;7.32;48.56;102637.44;5092567;27;45387;-68
2024/01/20 08:47:25;;;;;;;;;41.25;33.25;;;;;8.10;48.22;102649.53;5077223;27;45244;-66
2024/01/20 08:49:51;;;;;;;;;41.00;30.25;;;;;8.73;46.75;102639.09;5076890;27;45371;-67
2024/01/20 08:52:18;;;;;;;;;35.25;26.50;;;;;9.45;43.61;102634.94;5075501;28;45267;-69
2024/01/20 08:54:43;;;;;;;;;39.75;29.25;;;;;10.25;43.30;102631.63;5076821;27;45449;-67
2024/01/20 08:57:09;;;;;;;;;36.75;27.00;;;;;11.04;41.48;102633.31;5071679;27;45462;-67
2024/01/20 08:59:35;;;;;;;;;41.25;29.00;;;;;11.78;40.27;102625.81;5079571;27;45405;-66
2024/01/20 09:02:01;;;;;;;;;32.25;27.75;;;;;12.60;38.48;102636.72;5069242;28;45491;-67
2024/01/20 09:04:26;;;;;;;;;32.50;29.25;;;;;12.48;37.39;102636.41;5075141;28;45540;-67
2024/01/20 09:06:52;;;;;;;;;32.75;22.25;;;;;12.60;36.56;102633.19;5076268;27;45468;-67
2024/01/20 09:09:19;;;;;;;;;29.75;22.25;;;;;13.04;37.19;102623.69;5076521;28;46149;-67
2024/01/20 09:11:44;;;;;;;;;31.50;23.25;;;;;13.65;36.00;102628.50;5076168;28;46226;-67
2024/01/20 09:14:10;;;;;;;;;26.50;24.25;;;;;14.25;35.05;102601.47;5076153;27;45509;-67
2024/01/20 09:16:36;;;;;;;;;28.00;21.00;;;;;15.01;33.45;102607.03;5063868;27;45546;-67
2024/01/20 09:19:01;;;;;;;;;27.50;22.75;;;;;15.53;31.83;102598.00;5076303;27;45425;-67
2024/01/20 09:21:27;;;;;;;;;28.25;22.50;;;;;15.91;31.22;102619.56;5064726;27;45499;-67
2024/01/20 09:23:52;;;;;;;;;32.50;23.75;;;;;16.70;30.79;102592.91;5076411;28;45406;-67
2024/01/20 09:26:18;;;;;;;;;34.00;24.00;;;;;17.51;29.57;102604.72;5063903;27;46330;-68
2024/01/20 09:28:43;;;;;;;;;25.25;20.50;;;;;18.19;28.80;102608.41;5075819;28;45396;-67
2024/01/20 09:31:09;;;;;;;;;34.33;24.67;;;;;18.93;27.71;102592.41;5074771;28;45428;-67
2024/01/20 09:33:34;;;;;;;;;26.33;22.33;;;;;19.22;27.55;102589.63;5063854;27;45883;-66
2024/01/20 09:36:02;;;;;;;;;35.67;28.33;;;;;19.25;26.25;102587.88;5105918;27;45596;-66
2024/01/20 09:38:29;;;;;;;;;37.67;27.33;;;;;19.32;26.04;102594.03;5072333;28;46263;-67
2024/01/20 09:40:57;;;;;;;;;32.00;26.00;;;;;19.04;25.83;102583.53;5079475;27;45404;-67
2024/01/20 09:43:22;;;;;;;;;38.67;30.33;;;;;19.30;25.91;102592.28;5079952;27;45427;-67
2024/01/20 09:45:50;;;;;;;;;33.67;29.33;;;;;19.33;24.23;102582.50;5080000;28;45580;-67
2024/01/20 09:48:15;;;;;;;;;30.00;28.33;;;;;18.40;24.79;102587.19;5079391;27;45405;-66
2024/01/20 09:50:41;;;;;;;;;32.67;26.67;;;;;18.79;25.46;102572.13;5079598;27;45427;-68
2024/01/20 09:53:14;;;;;;;;;26.67;25.67;;;;;19.44;25.46;102583.34;5080290;27;45531;-68
2024/01/20 09:55:44;;;;;;;;;37.00;29.67;;;;;19.62;23.90;102587.69;5079488;27;45339;-68
2024/01/20 09:58:12;;;;;;;;;32.00;26.00;;;;;19.49;24.42;102596.59;5095065;27;47688;-69
2024/01/20 10:00:38;;;;;;;;;35.00;29.67;;;;;19.44;24.23;102593.97;5098342;27;45471;-69
2024/01/20 10:03:07;;;;;;;;;37.00;28.00;;;;;20.30;24.18;102587.16;5079512;28;45773;-68
2024/01/20 10:05:33;;;;;;;;;30.00;26.33;;;;;20.57;22.59;102575.41;5079731;27;45350;-69
2024/01/20 10:07:59;;;;;;;;;22.33;19.00;;;;;21.12;22.83;102585.44;5079601;27;46632;-68
2024/01/20 10:10:25;;;;;;;;;5.00;5.00;;;;;21.54;22.82;102582.22;5079221;28;45450;-69
2024/01/20 10:12:51;;;;;;;;;36.67;31.00;;;;;21.77;21.68;102584.56;5078396;28;45518;-68
2024/01/20 10:15:22;;;;;;;;;35.00;27.67;;;;;21.95;21.91;102578.06;5079593;27;45501;-68
2024/01/20 10:17:47;;;;;;;;;37.33;28.67;;;;;22.05;21.35;102586.78;5079475;27;45968;-68
2024/01/20 10:20:24;;;;;;;;;29.33;26.33;;;;;22.16;21.46;102576.78;5079613;27;45378;-67
2024/01/20 10:22:51;;;;;;;;;26.67;23.67;;;;;22.38;21.52;102570.22;5079089;27;45654;-68
2024/01/20 10:25:19;;;;;;;;;28.33;25.67;;;;;22.43;21.05;102552.31;5079000;27;45635;-68
2024/01/20 10:27:50;;;;;;;;;29.00;28.00;;;;;22.36;21.06;102557.81;5077908;27;46818;-68
2024/01/20 10:30:20;;;;;;;;;33.33;28.00;;;;;22.50;21.10;102557.56;5078153;27;45441;-69
2024/01/20 10:32:46;;;;;;;;;28.00;24.00;;;;;22.69;21.11;102576.78;5070734;27;45476;-67
2024/01/20 10:35:12;;;;;;;;;34.33;27.00;;;;;23.49;20.56;102567.94;5074109;28;45415;-66
2024/01/20 10:37:40;;;;;;;;;25.67;24.67;;;;;24.51;19.72;102563.66;5090860;27;46465;-68
2024/01/20 10:40:14;;;;;;;;;32.33;27.00;;;;;24.73;19.14;102564.81;5071146;28;45621;-68
2024/01/20 10:42:55;;;;;;;;;26.00;24.33;;;;;24.47;18.83;102570.03;5078869;27;45482;-67
2024/01/20 10:45:22;;;;;;;;;29.33;26.00;;;;;25.14;18.43;102565.41;5076777;27;45622;-68
2024/01/20 10:48:04;;;;;;;;;30.67;28.67;;;;;25.28;18.64;102565.03;5095164;27;46582;-67
2024/01/20 10:50:29;;;;;;;;;37.67;30.67;;;;;25.36;18.67;102562.09;5077600;27;45496;-67
2024/01/20 10:52:55;;;;;;;;;32.00;26.00;;;;;25.62;17.86;102555.91;5078811;27;45396;-68
2024/01/20 10:55:22;;;;;;;;;34.33;30.67;;;;;25.29;18.07;102555.16;5093853;27;45539;-68
2024/01/20 10:57:49;;;;;;;;;33.00;27.33;;;;;25.05;18.23;102546.03;5078553;27;45381;-66
2024/01/20 11:00:17;;;;;;;;;28.67;26.33;;;;;24.74;18.41;102550.50;5090820;27;45455;-66
2024/01/20 11:02:44;;;;;;;;;27.67;25.00;;;;;25.11;18.37;102548.56;5077494;27;45562;-68
2024/01/20 11:05:25;;;;;;;;;29.00;23.33;;;;;25.77;17.66;102554.53;5078183;27;45677;-67
2024/01/20 11:08:07;;;;;;;;;25.67;24.00;;;;;26.29;17.89;102551.88;5077463;27;46541;-68